sensor_id;sensor_type;location;lat;lon;timestamp;P1;durP1;ratioP1;P2;durP2;ratioP2
77123;SDS011;66079;47.646;19.130;2023-04-03T00:01:05;4.25;;;3.20;;
77123;SDS011;66079;47.646;19.130;2023-04-03T00:04:07;3.63;;;2.70;;
77123;SDS011;66079;47.646;19.130;2023-04-03T00:07:10;5.30;;;2.75;;
77123;SDS011;66079;47.646;19.130;2023-04-03T00:10:14;4.65;;;3.00;;
77123;SDS011;66079;47.646;19.130;2023-04-03T00:13:17;5.00;;;3.40;;
77123;SDS011;66079;47.646;19.130;2023-04-03T00:16:20;3.83;;;2.97;;
77123;SDS011;66079;47.646;19.130;2023-04-03T00:19:23;3.50;;;2.67;;
77123;SDS011;66079;47.646;19.130;2023-04-03T00:22:25;4.50;;;2.88;;
77123;SDS011;66079;47.646;19.130;2023-04-03T00:25:30;4.55;;;2.90;;
77123;SDS011;66079;47.646;19.130;2023-04-03T00:28:33;4.03;;;2.53;;
77123;SDS011;66079;47.646;19.130;2023-04-03T00:31:36;4.25;;;2.90;;
77123;SDS011;66079;47.646;19.130;2023-04-03T00:34:39;3.80;;;2.80;;
77123;SDS011;66079;47.646;19.130;2023-04-03T00:37:42;4.45;;;2.85;;
77123;SDS011;66079;47.646;19.130;2023-04-03T00:40:46;4.43;;;3.00;;
77123;SDS011;66079;47.646;19.130;2023-04-03T00:43:50;4.03;;;2.80;;
77123;SDS011;66079;47.646;19.130;2023-04-03T00:46:53;4.07;;;2.83;;
77123;SDS011;66079;47.646;19.130;2023-04-03T00:49:56;5.40;;;3.07;;
77123;SDS011;66079;47.646;19.130;2023-04-03T00:52:59;3.85;;;2.88;;
77123;SDS011;66079;47.646;19.130;2023-04-03T00:56:03;4.00;;;2.78;;
77123;SDS011;66079;47.646;19.130;2023-04-03T00:59:12;4.35;;;3.05;;
77123;SDS011;66079;47.646;19.130;2023-04-03T01:02:17;4.90;;;3.33;;
77123;SDS011;66079;47.646;19.130;2023-04-03T01:05:21;3.47;;;2.90;;
77123;SDS011;66079;47.646;19.130;2023-04-03T01:08:24;5.22;;;2.95;;
77123;SDS011;66079;47.646;19.130;2023-04-03T01:11:26;3.88;;;3.00;;
77123;SDS011;66079;47.646;19.130;2023-04-03T01:14:29;5.15;;;3.03;;
77123;SDS011;66079;47.646;19.130;2023-04-03T01:17:39;4.82;;;2.90;;
77123;SDS011;66079;47.646;19.130;2023-04-03T01:24:37;3.90;;;2.70;;
77123;SDS011;66079;47.646;19.130;2023-04-03T01:27:45;4.80;;;2.85;;
77123;SDS011;66079;47.646;19.130;2023-04-03T01:34:18;4.85;;;2.75;;
77123;SDS011;66079;47.646;19.130;2023-04-03T01:37:22;4.20;;;2.97;;
77123;SDS011;66079;47.646;19.130;2023-04-03T01:40:24;4.05;;;2.80;;
77123;SDS011;66079;47.646;19.130;2023-04-03T01:43:27;4.13;;;2.92;;
77123;SDS011;66079;47.646;19.130;2023-04-03T01:46:29;4.65;;;3.05;;
77123;SDS011;66079;47.646;19.130;2023-04-03T01:49:32;5.25;;;2.92;;
77123;SDS011;66079;47.646;19.130;2023-04-03T01:52:35;3.37;;;2.90;;
77123;SDS011;66079;47.646;19.130;2023-04-03T01:55:38;3.63;;;2.70;;
77123;SDS011;66079;47.646;19.130;2023-04-03T01:58:40;4.32;;;3.00;;
77123;SDS011;66079;47.646;19.130;2023-04-03T02:01:43;4.78;;;2.97;;
77123;SDS011;66079;47.646;19.130;2023-04-03T02:04:47;3.80;;;2.97;;
77123;SDS011;66079;47.646;19.130;2023-04-03T02:07:50;3.70;;;2.70;;
77123;SDS011;66079;47.646;19.130;2023-04-03T02:10:53;3.88;;;2.67;;
77123;SDS011;66079;47.646;19.130;2023-04-03T02:13:55;4.82;;;2.90;;
77123;SDS011;66079;47.646;19.130;2023-04-03T02:17:00;3.97;;;2.83;;
77123;SDS011;66079;47.646;19.130;2023-04-03T02:20:04;4.85;;;2.90;;
77123;SDS011;66079;47.646;19.130;2023-04-03T02:23:08;4.80;;;3.00;;
77123;SDS011;66079;47.646;19.130;2023-04-03T02:26:11;3.78;;;2.90;;
77123;SDS011;66079;47.646;19.130;2023-04-03T02:29:16;4.43;;;2.85;;
77123;SDS011;66079;47.646;19.130;2023-04-03T02:32:19;4.07;;;2.90;;
77123;SDS011;66079;47.646;19.130;2023-04-03T02:35:22;4.10;;;2.90;;
77123;SDS011;66079;47.646;19.130;2023-04-03T02:38:25;3.90;;;2.87;;
77123;SDS011;66079;47.646;19.130;2023-04-03T02:41:29;4.47;;;3.00;;
77123;SDS011;66079;47.646;19.130;2023-04-03T02:44:39;3.50;;;2.60;;
77123;SDS011;66079;47.646;19.130;2023-04-03T02:47:44;4.15;;;2.88;;
77123;SDS011;66079;47.646;19.130;2023-04-03T02:50:46;3.88;;;2.72;;
77123;SDS011;66079;47.646;19.130;2023-04-03T02:53:49;3.70;;;2.70;;
77123;SDS011;66079;47.646;19.130;2023-04-03T02:56:57;4.90;;;3.13;;
77123;SDS011;66079;47.646;19.130;2023-04-03T03:00:00;3.35;;;2.50;;
77123;SDS011;66079;47.646;19.130;2023-04-03T03:03:03;4.40;;;2.60;;
77123;SDS011;66079;47.646;19.130;2023-04-03T03:06:10;3.35;;;2.60;;
77123;SDS011;66079;47.646;19.130;2023-04-03T03:09:15;3.23;;;2.43;;
77123;SDS011;66079;47.646;19.130;2023-04-03T03:12:17;3.40;;;2.38;;
77123;SDS011;66079;47.646;19.130;2023-04-03T03:15:24;4.18;;;2.65;;
77123;SDS011;66079;47.646;19.130;2023-04-03T03:18:27;3.75;;;2.63;;
77123;SDS011;66079;47.646;19.130;2023-04-03T03:21:30;3.63;;;2.53;;
77123;SDS011;66079;47.646;19.130;2023-04-03T03:24:33;7.03;;;2.77;;
77123;SDS011;66079;47.646;19.130;2023-04-03T03:27:35;4.60;;;2.60;;
77123;SDS011;66079;47.646;19.130;2023-04-03T03:30:38;3.38;;;2.63;;
77123;SDS011;66079;47.646;19.130;2023-04-03T03:33:42;3.53;;;2.60;;
77123;SDS011;66079;47.646;19.130;2023-04-03T03:36:44;3.25;;;2.38;;
77123;SDS011;66079;47.646;19.130;2023-04-03T03:39:47;3.37;;;2.37;;
77123;SDS011;66079;47.646;19.130;2023-04-03T03:42:50;2.88;;;2.30;;
77123;SDS011;66079;47.646;19.130;2023-04-03T03:45:53;3.42;;;2.25;;
77123;SDS011;66079;47.646;19.130;2023-04-03T03:48:58;3.90;;;2.20;;
77123;SDS011;66079;47.646;19.130;2023-04-03T03:52:01;3.67;;;2.50;;
77123;SDS011;66079;47.646;19.130;2023-04-03T03:55:11;4.00;;;2.40;;
77123;SDS011;66079;47.646;19.130;2023-04-03T03:58:15;5.60;;;2.35;;
77123;SDS011;66079;47.646;19.130;2023-04-03T04:01:17;3.17;;;2.15;;
77123;SDS011;66079;47.646;19.130;2023-04-03T04:04:22;5.20;;;2.60;;
77123;SDS011;66079;47.646;19.130;2023-04-03T04:07:25;4.43;;;2.83;;
77123;SDS011;66079;47.646;19.130;2023-04-03T04:10:30;3.22;;;2.30;;
77123;SDS011;66079;47.646;19.130;2023-04-03T04:13:33;3.63;;;2.40;;
77123;SDS011;66079;47.646;19.130;2023-04-03T04:16:36;3.42;;;2.22;;
77123;SDS011;66079;47.646;19.130;2023-04-03T04:19:44;3.57;;;2.53;;
77123;SDS011;66079;47.646;19.130;2023-04-03T04:22:46;3.83;;;2.40;;
77123;SDS011;66079;47.646;19.130;2023-04-03T04:25:50;5.05;;;2.90;;
77123;SDS011;66079;47.646;19.130;2023-04-03T04:28:54;3.08;;;2.47;;
77123;SDS011;66079;47.646;19.130;2023-04-03T04:31:56;4.05;;;2.60;;
77123;SDS011;66079;47.646;19.130;2023-04-03T04:34:59;4.43;;;2.10;;
77123;SDS011;66079;47.646;19.130;2023-04-03T04:38:04;4.05;;;2.47;;
77123;SDS011;66079;47.646;19.130;2023-04-03T04:41:07;3.33;;;2.40;;
77123;SDS011;66079;47.646;19.130;2023-04-03T04:44:11;4.07;;;2.42;;
77123;SDS011;66079;47.646;19.130;2023-04-03T04:47:14;4.53;;;2.60;;
77123;SDS011;66079;47.646;19.130;2023-04-03T04:50:18;5.13;;;2.50;;
77123;SDS011;66079;47.646;19.130;2023-04-03T04:53:21;3.08;;;2.30;;
77123;SDS011;66079;47.646;19.130;2023-04-03T04:56:24;4.20;;;2.40;;
77123;SDS011;66079;47.646;19.130;2023-04-03T04:59:36;4.57;;;2.80;;
77123;SDS011;66079;47.646;19.130;2023-04-03T05:02:41;4.28;;;2.70;;
77123;SDS011;66079;47.646;19.130;2023-04-03T05:05:44;3.78;;;2.45;;
77123;SDS011;66079;47.646;19.130;2023-04-03T05:08:48;5.10;;;2.90;;
77123;SDS011;66079;47.646;19.130;2023-04-03T05:11:52;3.90;;;2.37;;
77123;SDS011;66079;47.646;19.130;2023-04-03T05:14:58;4.00;;;2.65;;
77123;SDS011;66079;47.646;19.130;2023-04-03T05:18:03;3.20;;;2.53;;
77123;SDS011;66079;47.646;19.130;2023-04-03T05:21:07;3.45;;;2.20;;
77123;SDS011;66079;47.646;19.130;2023-04-03T05:24:10;3.07;;;2.20;;
77123;SDS011;66079;47.646;19.130;2023-04-03T05:27:16;3.20;;;2.17;;
77123;SDS011;66079;47.646;19.130;2023-04-03T05:30:24;3.67;;;2.70;;
77123;SDS011;66079;47.646;19.130;2023-04-03T05:33:28;4.32;;;2.40;;
77123;SDS011;66079;47.646;19.130;2023-04-03T05:36:33;3.30;;;2.30;;
77123;SDS011;66079;47.646;19.130;2023-04-03T05:39:39;3.53;;;2.17;;
77123;SDS011;66079;47.646;19.130;2023-04-03T05:42:44;4.17;;;2.20;;
77123;SDS011;66079;47.646;19.130;2023-04-03T05:45:48;4.53;;;2.47;;
77123;SDS011;66079;47.646;19.130;2023-04-03T05:48:51;6.90;;;2.78;;
77123;SDS011;66079;47.646;19.130;2023-04-03T05:51:56;5.93;;;2.70;;
77123;SDS011;66079;47.646;19.130;2023-04-03T05:55:03;3.47;;;2.37;;
77123;SDS011;66079;47.646;19.130;2023-04-03T05:58:09;5.45;;;2.88;;
77123;SDS011;66079;47.646;19.130;2023-04-03T06:01:14;3.78;;;2.50;;
77123;SDS011;66079;47.646;19.130;2023-04-03T06:04:19;7.75;;;2.50;;
77123;SDS011;66079;47.646;19.130;2023-04-03T06:07:23;5.07;;;3.00;;
77123;SDS011;66079;47.646;19.130;2023-04-03T06:10:30;5.40;;;2.70;;
77123;SDS011;66079;47.646;19.130;2023-04-03T06:13:33;4.65;;;2.45;;
77123;SDS011;66079;47.646;19.130;2023-04-03T06:16:37;3.08;;;2.15;;
77123;SDS011;66079;47.646;19.130;2023-04-03T06:19:42;3.42;;;2.20;;
77123;SDS011;66079;47.646;19.130;2023-04-03T06:22:46;4.40;;;2.10;;
77123;SDS011;66079;47.646;19.130;2023-04-03T06:25:48;2.38;;;1.52;;
77123;SDS011;66079;47.646;19.130;2023-04-03T06:28:52;2.47;;;1.65;;
77123;SDS011;66079;47.646;19.130;2023-04-03T06:31:54;2.17;;;1.58;;
77123;SDS011;66079;47.646;19.130;2023-04-03T06:34:58;2.67;;;1.70;;
77123;SDS011;66079;47.646;19.130;2023-04-03T06:38:01;3.00;;;1.80;;
77123;SDS011;66079;47.646;19.130;2023-04-03T06:41:04;2.67;;;1.50;;
77123;SDS011;66079;47.646;19.130;2023-04-03T06:44:06;4.57;;;1.85;;
77123;SDS011;66079;47.646;19.130;2023-04-03T06:47:13;3.00;;;1.52;;
77123;SDS011;66079;47.646;19.130;2023-04-03T06:50:17;2.13;;;1.47;;
77123;SDS011;66079;47.646;19.130;2023-04-03T06:53:20;2.30;;;1.40;;
77123;SDS011;66079;47.646;19.130;2023-04-03T06:56:22;3.20;;;1.70;;
77123;SDS011;66079;47.646;19.130;2023-04-03T06:59:26;2.00;;;1.13;;
77123;SDS011;66079;47.646;19.130;2023-04-03T07:02:28;3.28;;;1.23;;
77123;SDS011;66079;47.646;19.130;2023-04-03T07:05:32;1.53;;;1.10;;
77123;SDS011;66079;47.646;19.130;2023-04-03T07:08:35;3.97;;;1.47;;
77123;SDS011;66079;47.646;19.130;2023-04-03T07:11:37;1.55;;;1.30;;
77123;SDS011;66079;47.646;19.130;2023-04-03T07:14:40;1.45;;;1.33;;
77123;SDS011;66079;47.646;19.130;2023-04-03T07:17:43;2.50;;;1.10;;
77123;SDS011;66079;47.646;19.130;2023-04-03T07:20:46;3.20;;;1.30;;
77123;SDS011;66079;47.646;19.130;2023-04-03T07:23:49;2.50;;;1.10;;
77123;SDS011;66079;47.646;19.130;2023-04-03T07:26:52;1.60;;;1.08;;
77123;SDS011;66079;47.646;19.130;2023-04-03T07:29:55;1.88;;;1.10;;
77123;SDS011;66079;47.646;19.130;2023-04-03T07:32:58;1.55;;;1.20;;
77123;SDS011;66079;47.646;19.130;2023-04-03T07:36:01;2.93;;;1.40;;
77123;SDS011;66079;47.646;19.130;2023-04-03T07:39:04;1.53;;;0.90;;
77123;SDS011;66079;47.646;19.130;2023-04-03T07:42:08;1.10;;;1.00;;
77123;SDS011;66079;47.646;19.130;2023-04-03T07:45:12;1.10;;;1.00;;
77123;SDS011;66079;47.646;19.130;2023-04-03T07:48:15;1.58;;;1.10;;
77123;SDS011;66079;47.646;19.130;2023-04-03T07:51:19;1.10;;;0.90;;
77123;SDS011;66079;47.646;19.130;2023-04-03T07:54:22;1.10;;;0.90;;
77123;SDS011;66079;47.646;19.130;2023-04-03T07:57:24;1.25;;;0.90;;
77123;SDS011;66079;47.646;19.130;2023-04-03T08:00:27;1.63;;;0.90;;
77123;SDS011;66079;47.646;19.130;2023-04-03T08:03:30;2.25;;;1.00;;
77123;SDS011;66079;47.646;19.130;2023-04-03T08:06:33;1.70;;;1.03;;
77123;SDS011;66079;47.646;19.130;2023-04-03T08:09:47;1.30;;;0.80;;
77123;SDS011;66079;47.646;19.130;2023-04-03T08:12:51;2.58;;;1.02;;
77123;SDS011;66079;47.646;19.130;2023-04-03T08:15:53;1.05;;;0.90;;
77123;SDS011;66079;47.646;19.130;2023-04-03T08:18:58;1.33;;;1.10;;
77123;SDS011;66079;47.646;19.130;2023-04-03T08:22:01;1.20;;;1.03;;
77123;SDS011;66079;47.646;19.130;2023-04-03T08:25:05;1.30;;;1.03;;
77123;SDS011;66079;47.646;19.130;2023-04-03T08:28:08;1.33;;;1.00;;
77123;SDS011;66079;47.646;19.130;2023-04-03T08:31:12;2.28;;;1.30;;
77123;SDS011;66079;47.646;19.130;2023-04-03T08:34:18;2.50;;;1.10;;
77123;SDS011;66079;47.646;19.130;2023-04-03T08:37:21;1.40;;;1.10;;
77123;SDS011;66079;47.646;19.130;2023-04-03T08:40:23;1.23;;;0.83;;
77123;SDS011;66079;47.646;19.130;2023-04-03T08:50:20;3.33;;;1.10;;
77123;SDS011;66079;47.646;19.130;2023-04-03T08:53:26;1.43;;;1.00;;
77123;SDS011;66079;47.646;19.130;2023-04-03T08:56:33;2.23;;;0.90;;
77123;SDS011;66079;47.646;19.130;2023-04-03T08:59:37;2.50;;;0.93;;
77123;SDS011;66079;47.646;19.130;2023-04-03T09:02:51;1.35;;;0.90;;
77123;SDS011;66079;47.646;19.130;2023-04-03T09:09:36;0.97;;;0.80;;
77123;SDS011;66079;47.646;19.130;2023-04-03T09:12:49;1.30;;;0.70;;
77123;SDS011;66079;47.646;19.130;2023-04-03T09:16:04;1.02;;;0.80;;
77123;SDS011;66079;47.646;19.130;2023-04-03T09:22:42;2.80;;;0.90;;
77123;SDS011;66079;47.646;19.130;2023-04-03T09:25:56;2.90;;;0.70;;
77123;SDS011;66079;47.646;19.130;2023-04-03T09:29:06;1.10;;;0.60;;
77123;SDS011;66079;47.646;19.130;2023-04-03T09:32:33;0.93;;;0.70;;
77123;SDS011;66079;47.646;19.130;2023-04-03T09:35:37;1.48;;;0.98;;
77123;SDS011;66079;47.646;19.130;2023-04-03T09:39:02;1.38;;;0.65;;
77123;SDS011;66079;47.646;19.130;2023-04-03T09:42:34;0.83;;;0.80;;
77123;SDS011;66079;47.646;19.130;2023-04-03T09:45:35;1.03;;;0.70;;
77123;SDS011;66079;47.646;19.130;2023-04-03T09:48:38;0.60;;;0.60;;
77123;SDS011;66079;47.646;19.130;2023-04-03T09:51:40;2.05;;;0.70;;
77123;SDS011;66079;47.646;19.130;2023-04-03T09:54:43;2.03;;;0.70;;
77123;SDS011;66079;47.646;19.130;2023-04-03T09:57:46;3.00;;;0.70;;
77123;SDS011;66079;47.646;19.130;2023-04-03T10:00:58;0.80;;;0.50;;
77123;SDS011;66079;47.646;19.130;2023-04-03T10:10:35;0.88;;;0.70;;
77123;SDS011;66079;47.646;19.130;2023-04-03T10:17:47;0.77;;;0.70;;
77123;SDS011;66079;47.646;19.130;2023-04-03T10:21:06;0.93;;;0.80;;
77123;SDS011;66079;47.646;19.130;2023-04-03T10:24:32;1.17;;;0.63;;
77123;SDS011;66079;47.646;19.130;2023-04-03T10:27:49;1.25;;;0.90;;
77123;SDS011;66079;47.646;19.130;2023-04-03T10:34:35;0.77;;;0.70;;
77123;SDS011;66079;47.646;19.130;2023-04-03T10:41:07;1.25;;;0.80;;
77123;SDS011;66079;47.646;19.130;2023-04-03T10:47:58;2.20;;;0.60;;
77123;SDS011;66079;47.646;19.130;2023-04-03T10:51:11;1.40;;;0.90;;
77123;SDS011;66079;47.646;19.130;2023-04-03T10:57:41;2.65;;;0.65;;
77123;SDS011;66079;47.646;19.130;2023-04-03T11:00:48;0.77;;;0.70;;
77123;SDS011;66079;47.646;19.130;2023-04-03T11:03:54;1.00;;;0.80;;
77123;SDS011;66079;47.646;19.130;2023-04-03T11:07:08;2.77;;;0.70;;
77123;SDS011;66079;47.646;19.130;2023-04-03T11:10:31;0.75;;;0.57;;
77123;SDS011;66079;47.646;19.130;2023-04-03T11:13:57;0.68;;;0.50;;
77123;SDS011;66079;47.646;19.130;2023-04-03T11:20:17;1.03;;;0.63;;
77123;SDS011;66079;47.646;19.130;2023-04-03T11:23:29;1.23;;;0.90;;
77123;SDS011;66079;47.646;19.130;2023-04-03T11:26:50;0.73;;;0.65;;
77123;SDS011;66079;47.646;19.130;2023-04-03T11:29:55;0.82;;;0.60;;
77123;SDS011;66079;47.646;19.130;2023-04-03T11:36:26;0.53;;;0.50;;
77123;SDS011;66079;47.646;19.130;2023-04-03T11:39:36;0.70;;;0.50;;
77123;SDS011;66079;47.646;19.130;2023-04-03T11:42:41;1.42;;;0.57;;
77123;SDS011;66079;47.646;19.130;2023-04-03T11:49:49;2.47;;;0.70;;
77123;SDS011;66079;47.646;19.130;2023-04-03T11:55:56;1.83;;;0.83;;
77123;SDS011;66079;47.646;19.130;2023-04-03T12:02:24;0.98;;;0.80;;
77123;SDS011;66079;47.646;19.130;2023-04-03T12:12:35;1.70;;;0.70;;
77123;SDS011;66079;47.646;19.130;2023-04-03T12:24:59;1.83;;;0.80;;
77123;SDS011;66079;47.646;19.130;2023-04-03T12:28:41;1.03;;;0.60;;
77123;SDS011;66079;47.646;19.130;2023-04-03T12:42:18;0.70;;;0.60;;
77123;SDS011;66079;47.646;19.130;2023-04-03T12:45:43;0.90;;;0.77;;
77123;SDS011;66079;47.646;19.130;2023-04-03T12:48:56;1.23;;;0.57;;
77123;SDS011;66079;47.646;19.130;2023-04-03T12:51:59;4.38;;;0.70;;
77123;SDS011;66079;47.646;19.130;2023-04-03T12:55:07;1.27;;;0.60;;
77123;SDS011;66079;47.646;19.130;2023-04-03T12:58:23;1.03;;;0.70;;
77123;SDS011;66079;47.646;19.130;2023-04-03T13:01:30;0.50;;;0.50;;
77123;SDS011;66079;47.646;19.130;2023-04-03T13:04:33;0.80;;;0.50;;
77123;SDS011;66079;47.646;19.130;2023-04-03T13:07:36;0.70;;;0.52;;
77123;SDS011;66079;47.646;19.130;2023-04-03T13:11:01;1.38;;;0.73;;
77123;SDS011;66079;47.646;19.130;2023-04-03T13:14:14;2.73;;;0.97;;
77123;SDS011;66079;47.646;19.130;2023-04-03T13:17:18;1.17;;;0.80;;
77123;SDS011;66079;47.646;19.130;2023-04-03T13:20:26;0.77;;;0.60;;
77123;SDS011;66079;47.646;19.130;2023-04-03T13:23:32;1.35;;;0.80;;
77123;SDS011;66079;47.646;19.130;2023-04-03T13:26:38;1.73;;;0.80;;
77123;SDS011;66079;47.646;19.130;2023-04-03T13:29:41;0.90;;;0.80;;
77123;SDS011;66079;47.646;19.130;2023-04-03T13:32:44;2.00;;;0.90;;
77123;SDS011;66079;47.646;19.130;2023-04-03T13:35:47;0.82;;;0.80;;
77123;SDS011;66079;47.646;19.130;2023-04-03T13:39:21;1.70;;;1.33;;
77123;SDS011;66079;47.646;19.130;2023-04-03T13:42:33;3.40;;;1.00;;
77123;SDS011;66079;47.646;19.130;2023-04-03T13:45:38;1.40;;;1.20;;
77123;SDS011;66079;47.646;19.130;2023-04-03T13:48:46;0.90;;;0.80;;
77123;SDS011;66079;47.646;19.130;2023-04-03T13:51:50;0.70;;;0.68;;
77123;SDS011;66079;47.646;19.130;2023-04-03T13:55:28;2.25;;;0.80;;
77123;SDS011;66079;47.646;19.130;2023-04-03T13:58:35;0.77;;;0.77;;
77123;SDS011;66079;47.646;19.130;2023-04-03T14:01:44;0.97;;;0.80;;
77123;SDS011;66079;47.646;19.130;2023-04-03T14:04:53;1.23;;;0.90;;
77123;SDS011;66079;47.646;19.130;2023-04-03T14:08:00;1.55;;;0.90;;
77123;SDS011;66079;47.646;19.130;2023-04-03T14:11:04;1.30;;;1.10;;
77123;SDS011;66079;47.646;19.130;2023-04-03T14:14:11;2.00;;;1.05;;
77123;SDS011;66079;47.646;19.130;2023-04-03T14:17:18;1.00;;;0.80;;
77123;SDS011;66079;47.646;19.130;2023-04-03T14:20:27;0.90;;;0.73;;
77123;SDS011;66079;47.646;19.130;2023-04-03T14:23:29;1.08;;;0.80;;
77123;SDS011;66079;47.646;19.130;2023-04-03T14:26:33;2.25;;;1.10;;
77123;SDS011;66079;47.646;19.130;2023-04-03T14:29:36;1.83;;;0.80;;
77123;SDS011;66079;47.646;19.130;2023-04-03T14:32:38;1.63;;;0.90;;
77123;SDS011;66079;47.646;19.130;2023-04-03T14:35:41;1.40;;;1.10;;
77123;SDS011;66079;47.646;19.130;2023-04-03T14:38:44;1.23;;;0.85;;
77123;SDS011;66079;47.646;19.130;2023-04-03T14:41:47;3.33;;;1.40;;
77123;SDS011;66079;47.646;19.130;2023-04-03T14:44:50;1.85;;;1.05;;
77123;SDS011;66079;47.646;19.130;2023-04-03T14:47:54;1.27;;;0.83;;
77123;SDS011;66079;47.646;19.130;2023-04-03T14:50:59;1.37;;;1.10;;
77123;SDS011;66079;47.646;19.130;2023-04-03T14:54:15;1.65;;;1.23;;
77123;SDS011;66079;47.646;19.130;2023-04-03T14:57:24;1.67;;;1.25;;
77123;SDS011;66079;47.646;19.130;2023-04-03T15:00:29;1.58;;;1.00;;
77123;SDS011;66079;47.646;19.130;2023-04-03T15:03:32;1.80;;;1.00;;
77123;SDS011;66079;47.646;19.130;2023-04-03T15:06:34;1.93;;;1.23;;
77123;SDS011;66079;47.646;19.130;2023-04-03T15:09:38;2.47;;;1.20;;
77123;SDS011;66079;47.646;19.130;2023-04-03T15:12:42;2.20;;;1.00;;
77123;SDS011;66079;47.646;19.130;2023-04-03T15:15:45;1.23;;;1.08;;
77123;SDS011;66079;47.646;19.130;2023-04-03T15:18:48;4.37;;;1.03;;
77123;SDS011;66079;47.646;19.130;2023-04-03T15:21:51;0.90;;;0.80;;
77123;SDS011;66079;47.646;19.130;2023-04-03T15:24:54;2.15;;;0.85;;
77123;SDS011;66079;47.646;19.130;2023-04-03T15:27:56;0.98;;;0.70;;
77123;SDS011;66079;47.646;19.130;2023-04-03T15:31:00;0.80;;;0.50;;
77123;SDS011;66079;47.646;19.130;2023-04-03T15:34:02;13.80;;;1.23;;
77123;SDS011;66079;47.646;19.130;2023-04-03T15:37:05;1.67;;;0.73;;
77123;SDS011;66079;47.646;19.130;2023-04-03T15:40:08;1.13;;;0.77;;
77123;SDS011;66079;47.646;19.130;2023-04-03T15:43:11;0.85;;;0.70;;
77123;SDS011;66079;47.646;19.130;2023-04-03T15:46:14;1.67;;;1.00;;
77123;SDS011;66079;47.646;19.130;2023-04-03T15:49:17;3.03;;;0.77;;
77123;SDS011;66079;47.646;19.130;2023-04-03T15:52:22;1.50;;;0.90;;
77123;SDS011;66079;47.646;19.130;2023-04-03T15:55:25;1.08;;;0.60;;
77123;SDS011;66079;47.646;19.130;2023-04-03T15:58:28;1.20;;;1.00;;
77123;SDS011;66079;47.646;19.130;2023-04-03T16:01:31;1.58;;;0.90;;
77123;SDS011;66079;47.646;19.130;2023-04-03T16:04:34;1.23;;;0.90;;
77123;SDS011;66079;47.646;19.130;2023-04-03T16:07:38;2.40;;;0.90;;
77123;SDS011;66079;47.646;19.130;2023-04-03T16:10:41;1.95;;;1.00;;
77123;SDS011;66079;47.646;19.130;2023-04-03T16:13:44;2.22;;;1.02;;
77123;SDS011;66079;47.646;19.130;2023-04-03T16:16:47;1.38;;;0.90;;
77123;SDS011;66079;47.646;19.130;2023-04-03T16:19:49;1.33;;;0.93;;
77123;SDS011;66079;47.646;19.130;2023-04-03T16:22:52;1.10;;;0.80;;
77123;SDS011;66079;47.646;19.130;2023-04-03T16:25:55;1.67;;;0.90;;
77123;SDS011;66079;47.646;19.130;2023-04-03T16:28:58;2.40;;;0.93;;
77123;SDS011;66079;47.646;19.130;2023-04-03T16:32:00;1.10;;;0.90;;
77123;SDS011;66079;47.646;19.130;2023-04-03T16:35:03;1.63;;;0.80;;
77123;SDS011;66079;47.646;19.130;2023-04-03T16:38:07;1.40;;;0.90;;
77123;SDS011;66079;47.646;19.130;2023-04-03T16:41:10;2.65;;;1.00;;
77123;SDS011;66079;47.646;19.130;2023-04-03T16:44:12;1.70;;;1.00;;
77123;SDS011;66079;47.646;19.130;2023-04-03T16:47:15;1.98;;;1.20;;
77123;SDS011;66079;47.646;19.130;2023-04-03T16:50:21;1.60;;;1.00;;
77123;SDS011;66079;47.646;19.130;2023-04-03T16:53:24;3.83;;;0.90;;
77123;SDS011;66079;47.646;19.130;2023-04-03T16:56:27;2.30;;;1.00;;
77123;SDS011;66079;47.646;19.130;2023-04-03T16:59:30;1.75;;;1.08;;
77123;SDS011;66079;47.646;19.130;2023-04-03T17:02:33;3.03;;;1.00;;
77123;SDS011;66079;47.646;19.130;2023-04-03T17:05:36;1.73;;;1.00;;
77123;SDS011;66079;47.646;19.130;2023-04-03T17:08:40;1.90;;;1.10;;
77123;SDS011;66079;47.646;19.130;2023-04-03T17:11:43;2.25;;;1.20;;
77123;SDS011;66079;47.646;19.130;2023-04-03T17:14:49;3.17;;;2.00;;
77123;SDS011;66079;47.646;19.130;2023-04-03T17:17:52;3.28;;;1.50;;
77123;SDS011;66079;47.646;19.130;2023-04-03T17:20:55;2.00;;;1.50;;
77123;SDS011;66079;47.646;19.130;2023-04-03T17:23:59;2.53;;;1.43;;
77123;SDS011;66079;47.646;19.130;2023-04-03T17:27:04;2.35;;;1.10;;
77123;SDS011;66079;47.646;19.130;2023-04-03T17:30:07;2.08;;;1.40;;
77123;SDS011;66079;47.646;19.130;2023-04-03T17:33:10;2.58;;;1.65;;
77123;SDS011;66079;47.646;19.130;2023-04-03T17:36:13;3.03;;;1.97;;
77123;SDS011;66079;47.646;19.130;2023-04-03T17:39:16;2.23;;;1.30;;
77123;SDS011;66079;47.646;19.130;2023-04-03T17:42:18;1.98;;;1.20;;
77123;SDS011;66079;47.646;19.130;2023-04-03T17:45:22;3.17;;;0.82;;
77123;SDS011;66079;47.646;19.130;2023-04-03T17:48:25;2.05;;;0.95;;
77123;SDS011;66079;47.646;19.130;2023-04-03T17:51:29;2.40;;;1.40;;
77123;SDS011;66079;47.646;19.130;2023-04-03T17:54:33;1.97;;;1.20;;
77123;SDS011;66079;47.646;19.130;2023-04-03T17:57:36;1.92;;;1.08;;
77123;SDS011;66079;47.646;19.130;2023-04-03T18:00:39;2.25;;;1.23;;
77123;SDS011;66079;47.646;19.130;2023-04-03T18:03:42;2.55;;;1.52;;
77123;SDS011;66079;47.646;19.130;2023-04-03T18:06:47;3.00;;;1.07;;
77123;SDS011;66079;47.646;19.130;2023-04-03T18:09:52;3.20;;;1.57;;
77123;SDS011;66079;47.646;19.130;2023-04-03T18:12:57;2.95;;;1.60;;
77123;SDS011;66079;47.646;19.130;2023-04-03T18:16:00;3.88;;;1.55;;
77123;SDS011;66079;47.646;19.130;2023-04-03T18:19:03;4.10;;;1.52;;
77123;SDS011;66079;47.646;19.130;2023-04-03T18:22:13;2.73;;;1.20;;
77123;SDS011;66079;47.646;19.130;2023-04-03T18:25:21;3.57;;;1.50;;
77123;SDS011;66079;47.646;19.130;2023-04-03T18:28:25;3.33;;;1.85;;
77123;SDS011;66079;47.646;19.130;2023-04-03T18:31:29;1.83;;;1.25;;
77123;SDS011;66079;47.646;19.130;2023-04-03T18:34:35;2.63;;;1.27;;
77123;SDS011;66079;47.646;19.130;2023-04-03T18:37:38;3.30;;;1.20;;
77123;SDS011;66079;47.646;19.130;2023-04-03T18:40:41;1.80;;;1.07;;
77123;SDS011;66079;47.646;19.130;2023-04-03T18:43:46;1.92;;;1.10;;
77123;SDS011;66079;47.646;19.130;2023-04-03T18:46:48;1.48;;;1.08;;
77123;SDS011;66079;47.646;19.130;2023-04-03T18:49:51;1.48;;;0.82;;
77123;SDS011;66079;47.646;19.130;2023-04-03T18:52:54;1.10;;;0.77;;
77123;SDS011;66079;47.646;19.130;2023-04-03T18:55:57;1.45;;;1.05;;
77123;SDS011;66079;47.646;19.130;2023-04-03T18:58:59;1.95;;;1.00;;
77123;SDS011;66079;47.646;19.130;2023-04-03T19:02:02;1.77;;;0.90;;
77123;SDS011;66079;47.646;19.130;2023-04-03T19:05:07;2.38;;;1.10;;
77123;SDS011;66079;47.646;19.130;2023-04-03T19:08:13;1.63;;;1.10;;
77123;SDS011;66079;47.646;19.130;2023-04-03T19:11:15;2.40;;;1.20;;
77123;SDS011;66079;47.646;19.130;2023-04-03T19:14:18;1.42;;;1.10;;
77123;SDS011;66079;47.646;19.130;2023-04-03T19:17:21;2.90;;;1.23;;
77123;SDS011;66079;47.646;19.130;2023-04-03T19:20:24;2.30;;;1.20;;
77123;SDS011;66079;47.646;19.130;2023-04-03T19:23:27;3.30;;;1.20;;
77123;SDS011;66079;47.646;19.130;2023-04-03T19:26:29;2.63;;;1.10;;
77123;SDS011;66079;47.646;19.130;2023-04-03T19:29:32;2.17;;;1.30;;
77123;SDS011;66079;47.646;19.130;2023-04-03T19:32:35;2.70;;;1.58;;
77123;SDS011;66079;47.646;19.130;2023-04-03T19:35:41;1.98;;;1.00;;
77123;SDS011;66079;47.646;19.130;2023-04-03T19:38:44;2.57;;;1.30;;
77123;SDS011;66079;47.646;19.130;2023-04-03T19:41:47;2.65;;;1.30;;
77123;SDS011;66079;47.646;19.130;2023-04-03T19:44:50;4.00;;;1.23;;
77123;SDS011;66079;47.646;19.130;2023-04-03T19:47:55;2.85;;;1.20;;